createdAt,value
2022-08-05T00:01:36.242Z,2.80
2022-08-05T00:04:17.260Z,2.80
2022-08-05T00:06:45.111Z,2.65
2022-08-05T00:09:15.979Z,2.22
2022-08-05T00:11:49.436Z,2.55
2022-08-05T00:14:27.505Z,3.03
2022-08-05T00:16:56.318Z,3.00
2022-08-05T00:19:24.864Z,3.58
2022-08-05T00:22:00.341Z,2.80
2022-08-05T00:24:30.932Z,2.22
2022-08-05T00:27:00.263Z,2.50
2022-08-05T00:29:38.145Z,2.80
2022-08-05T00:32:12.261Z,2.80
2022-08-05T00:35:05.019Z,2.60
2022-08-05T00:37:50.707Z,2.58
2022-08-05T00:40:27.526Z,2.90
2022-08-05T00:42:58.403Z,2.92
2022-08-05T00:45:38.014Z,3.10
2022-08-05T00:48:09.524Z,2.67
2022-08-05T00:50:41.933Z,2.83
2022-08-05T00:53:45.030Z,2.50
2022-08-05T00:55:58.364Z,3.20
2022-08-05T00:58:27.554Z,3.40
2022-08-05T01:00:56.342Z,3.50
2022-08-05T01:03:24.352Z,3.20
2022-08-05T01:05:58.667Z,3.70
2022-08-05T01:08:41.598Z,3.13
2022-08-05T01:11:22.277Z,3.38
2022-08-05T01:14:00.050Z,3.30
2022-08-05T01:16:50.914Z,3.33
2022-08-05T01:19:46.177Z,3.42
2022-08-05T01:22:58.120Z,2.70
2022-08-05T01:26:21.458Z,3.42
2022-08-05T01:29:23.222Z,3.80
2022-08-05T01:31:58.886Z,3.70
2022-08-05T01:35:10.371Z,3.88
2022-08-05T01:37:47.732Z,3.42
2022-08-05T01:40:29.218Z,3.38
2022-08-05T01:42:59.080Z,3.17
2022-08-05T01:45:35.038Z,2.70
2022-08-05T01:48:10.970Z,2.90
2022-08-05T01:50:40.956Z,3.35
2022-08-05T01:53:54.640Z,3.80
2022-08-05T01:56:11.356Z,3.95
2022-08-05T01:58:44.936Z,3.70
2022-08-05T02:01:14.652Z,3.55
2022-08-05T02:03:51.976Z,3.30
2022-08-05T02:06:33.935Z,3.53
2022-08-05T02:09:06.676Z,3.00
2022-08-05T02:12:18.469Z,3.08
2022-08-05T02:15:03.577Z,3.40
2022-08-05T02:18:33.259Z,3.28
2022-08-05T02:20:44.148Z,3.40
2022-08-05T02:23:15.847Z,3.72
2022-08-05T02:25:49.092Z,3.75
2022-08-05T02:28:28.833Z,3.40
2022-08-05T02:31:23.725Z,3.13
2022-08-05T02:34:05.021Z,3.72
2022-08-05T02:36:34.715Z,3.83
2022-08-05T02:39:09.819Z,3.60
2022-08-05T02:41:57.583Z,3.08
2022-08-05T02:44:28.600Z,3.25
2022-08-05T02:47:00.918Z,3.30
2022-08-05T02:49:40.663Z,3.10
2022-08-05T02:52:29.290Z,3.67
2022-08-05T02:55:05.390Z,3.45
2022-08-05T02:58:11.822Z,3.05
2022-08-05T03:00:23.158Z,3.20
2022-08-05T03:02:54.483Z,3.20
2022-08-05T03:06:56.031Z,3.75
2022-08-05T03:08:26.961Z,3.78
2022-08-05T03:11:53.611Z,2.80
2022-08-05T03:13:51.438Z,3.00
2022-08-05T03:16:29.985Z,3.10
2022-08-05T03:19:00.645Z,2.95
2022-08-05T03:21:28.743Z,2.50
2022-08-05T03:23:56.844Z,3.47
2022-08-05T03:26:32.023Z,3.10
2022-08-05T03:29:00.307Z,2.90
2022-08-05T03:31:57.394Z,3.10
2022-08-05T03:34:16.446Z,3.28
2022-08-05T03:36:43.808Z,3.13
2022-08-05T03:39:13.262Z,2.80
2022-08-05T03:41:47.404Z,2.95
2022-08-05T03:44:19.994Z,2.97
2022-08-05T03:46:47.256Z,3.50
2022-08-05T03:49:15.814Z,3.20
2022-08-05T03:52:50.387Z,2.97
2022-08-05T03:55:50.066Z,3.33
2022-08-05T03:57:48.820Z,3.20
2022-08-05T04:00:21.791Z,2.97
2022-08-05T04:02:58.446Z,3.13
2022-08-05T04:05:34.807Z,2.53
2022-08-05T04:08:14.594Z,3.53
2022-08-05T04:10:58.409Z,2.75
2022-08-05T04:13:49.929Z,3.15
2022-08-05T04:16:15.593Z,3.20
2022-08-05T04:18:54.248Z,2.60
2022-08-05T04:22:10.247Z,2.90
2022-08-05T04:24:19.231Z,3.30
2022-08-05T04:26:51.281Z,3.17
2022-08-05T04:29:21.853Z,2.80
2022-08-05T04:31:50.556Z,3.20
2022-08-05T04:34:32.803Z,3.70
2022-08-05T04:37:03.207Z,3.50
2022-08-05T04:39:32.149Z,3.05
2022-08-05T04:41:59.849Z,3.33
2022-08-05T04:44:30.298Z,3.50
2022-08-05T04:47:09.517Z,2.97
2022-08-05T04:50:02.782Z,2.92
2022-08-05T04:53:01.229Z,3.20
2022-08-05T04:56:33.341Z,2.70
2022-08-05T04:58:21.638Z,2.90
2022-08-05T05:00:50.660Z,3.03
2022-08-05T05:03:18.074Z,3.08
2022-08-05T05:06:36.705Z,2.88
2022-08-05T05:08:38.508Z,2.55
2022-08-05T05:11:10.493Z,2.92
2022-08-05T05:13:43.221Z,3.00
2022-08-05T05:16:15.512Z,2.90
2022-08-05T05:19:08.905Z,2.97
2022-08-05T05:21:34.050Z,2.85
2022-08-05T05:24:08.838Z,3.10
2022-08-05T05:26:36.214Z,2.95
2022-08-05T05:29:13.657Z,3.40
2022-08-05T05:31:42.752Z,3.20
2022-08-05T05:34:21.173Z,3.30
2022-08-05T05:36:51.350Z,2.78
2022-08-05T05:39:21.526Z,3.55
2022-08-05T05:41:54.558Z,3.45
2022-08-05T05:44:36.574Z,3.22
2022-08-05T05:47:21.345Z,3.53
2022-08-05T05:49:52.581Z,3.55
2022-08-05T05:52:29.963Z,3.70
2022-08-05T05:55:13.132Z,3.67
2022-08-05T05:57:52.720Z,3.45
2022-08-05T06:00:27.794Z,3.70
2022-08-05T06:03:39.645Z,3.30
2022-08-05T06:05:53.920Z,3.60
2022-08-05T06:08:31.486Z,3.33
2022-08-05T06:11:00.991Z,3.75
2022-08-05T06:13:28.408Z,3.45
2022-08-05T06:16:31.423Z,3.15
2022-08-05T06:18:55.042Z,3.40
2022-08-05T06:21:22.455Z,3.35
2022-08-05T06:23:52.605Z,3.33
2022-08-05T06:26:21.634Z,3.40
2022-08-05T06:28:51.948Z,3.47
2022-08-05T06:31:22.005Z,2.95
2022-08-05T06:34:07.998Z,3.30
2022-08-05T06:36:56.937Z,2.60
2022-08-05T06:39:24.611Z,2.50
2022-08-05T06:41:55.912Z,2.65
2022-08-05T06:44:25.990Z,2.55
2022-08-05T06:46:54.478Z,2.10
2022-08-05T06:49:59.824Z,2.10
2022-08-05T06:52:36.852Z,1.90
2022-08-05T06:54:56.094Z,2.03
2022-08-05T06:58:02.844Z,1.70
2022-08-05T07:00:12.761Z,1.80
2022-08-05T07:02:47.421Z,2.13
2022-08-05T07:05:24.593Z,1.65
2022-08-05T07:08:04.461Z,1.90
2022-08-05T07:10:32.627Z,1.63
2022-08-05T07:13:52.467Z,1.80
2022-08-05T07:16:39.434Z,2.15
2022-08-05T07:19:11.156Z,1.90
2022-08-05T07:21:59.286Z,2.10
2022-08-05T07:24:28.771Z,2.03
2022-08-05T07:26:57.027Z,1.80
2022-08-05T07:29:25.340Z,1.83
2022-08-05T07:32:12.391Z,1.80
2022-08-05T07:34:42.433Z,1.83
2022-08-05T07:37:11.591Z,1.60
2022-08-05T07:40:26.257Z,1.70
2022-08-05T07:42:31.469Z,1.58
2022-08-05T07:45:01.415Z,1.45
2022-08-05T07:47:31.171Z,1.80
2022-08-05T07:50:10.200Z,1.63
2022-08-05T07:52:45.217Z,1.50
2022-08-05T07:55:15.786Z,1.60
2022-08-05T07:58:04.039Z,1.63
2022-08-05T08:00:31.687Z,1.52
2022-08-05T08:03:14.102Z,1.50
2022-08-05T08:05:49.585Z,1.40
2022-08-05T08:08:20.040Z,1.70
2022-08-05T08:10:48.793Z,1.77
2022-08-05T08:13:21.879Z,1.50
2022-08-05T08:16:35.617Z,2.85
2022-08-05T08:18:43.177Z,1.48
2022-08-05T08:21:17.730Z,1.52
2022-08-05T08:24:01.354Z,1.65
2022-08-05T08:26:32.266Z,1.60
2022-08-05T08:29:29.612Z,1.50
2022-08-05T08:31:50.241Z,1.73
2022-08-05T08:34:29.890Z,1.50
2022-08-05T08:37:03.294Z,1.63
2022-08-05T08:39:32.508Z,1.40
2022-08-05T08:42:10.613Z,1.58
2022-08-05T08:45:20.710Z,2.00
2022-08-05T08:48:06.205Z,1.40
2022-08-05T08:51:23.078Z,1.58
2022-08-05T08:53:34.411Z,1.40
2022-08-05T08:56:06.957Z,2.25
2022-08-05T08:58:43.268Z,1.88
2022-08-05T09:01:15.769Z,2.03
2022-08-05T09:03:54.343Z,1.40
2022-08-05T09:06:29.684Z,1.55
2022-08-05T09:09:01.006Z,1.58
2022-08-05T09:11:51.229Z,1.48
2022-08-05T09:14:57.459Z,1.70
2022-08-05T09:17:41.075Z,2.10
2022-08-05T09:20:04.763Z,1.90
2022-08-05T09:23:19.756Z,1.98
2022-08-05T09:26:06.167Z,1.83
2022-08-05T09:28:36.117Z,2.00
2022-08-05T09:32:38.509Z,1.60
2022-08-05T09:34:11.567Z,1.77
2022-08-05T09:36:56.438Z,1.88
2022-08-05T09:39:41.392Z,1.75
2022-08-05T09:42:24.482Z,1.65
2022-08-05T09:45:03.224Z,1.80
2022-08-05T09:47:55.542Z,1.50
2022-08-05T09:50:44.175Z,1.58
2022-08-05T09:53:22.831Z,1.42
2022-08-05T09:56:04.733Z,1.85
2022-08-05T09:58:41.999Z,1.65
2022-08-05T10:01:15.762Z,1.80
2022-08-05T10:04:13.645Z,1.88
2022-08-05T10:06:59.270Z,1.40
2022-08-05T10:09:29.777Z,1.88
2022-08-05T10:12:18.554Z,1.60
2022-08-05T10:15:16.193Z,1.60
2022-08-05T10:18:17.379Z,1.30
2022-08-05T10:20:57.304Z,1.50
2022-08-05T10:23:50.909Z,1.90
2022-08-05T10:26:18.716Z,1.90
2022-08-05T10:28:51.417Z,1.80
2022-08-05T10:32:52.922Z,1.90
2022-08-05T10:34:11.201Z,1.98
2022-08-05T10:36:41.501Z,1.95
2022-08-05T10:39:59.137Z,2.17
2022-08-05T10:42:33.413Z,2.30
2022-08-05T10:45:21.568Z,3.70
2022-08-05T10:48:29.808Z,3.28
2022-08-05T10:51:22.074Z,2.05
2022-08-05T10:54:01.071Z,3.35
2022-08-05T10:56:58.461Z,3.35
2022-08-05T11:00:03.275Z,3.10
2022-08-05T11:02:34.665Z,2.90
2022-08-05T11:05:10.420Z,3.10
2022-08-05T11:08:01.096Z,3.70
2022-08-05T11:10:33.469Z,2.80
2022-08-05T11:13:01.327Z,2.55
2022-08-05T11:16:01.008Z,3.65
2022-08-05T11:18:34.020Z,2.80
2022-08-05T11:21:03.588Z,2.70
2022-08-05T11:24:05.632Z,2.55
2022-08-05T11:26:40.362Z,2.60
2022-08-05T11:29:13.265Z,2.95
2022-08-05T11:31:58.022Z,2.50
2022-08-05T11:34:51.420Z,2.40
2022-08-05T11:38:26.305Z,2.15
2022-08-05T11:41:01.809Z,1.70
2022-08-05T11:44:08.507Z,1.48
2022-08-05T11:47:09.380Z,1.15
2022-08-05T11:49:39.966Z,1.73
2022-08-05T11:52:11.547Z,1.73
2022-08-05T11:54:40.641Z,1.63
2022-08-05T11:57:24.939Z,2.00
2022-08-05T11:59:53.631Z,1.70
2022-08-05T12:02:32.976Z,1.60
2022-08-05T12:05:07.236Z,1.98
2022-08-05T12:08:08.384Z,1.40
2022-08-05T12:10:43.633Z,1.65
2022-08-05T12:13:17.337Z,1.95
2022-08-05T12:15:56.015Z,1.95
2022-08-05T12:18:39.000Z,1.70
2022-08-05T12:21:22.036Z,1.90
2022-08-05T12:24:07.034Z,1.63
2022-08-05T12:26:43.965Z,1.98
2022-08-05T12:29:22.794Z,1.65
2022-08-05T12:32:02.145Z,1.90
2022-08-05T12:34:36.894Z,1.65
2022-08-05T12:37:10.848Z,1.60
2022-08-05T12:39:51.113Z,1.90
2022-08-05T12:42:21.250Z,1.70
2022-08-05T12:44:52.117Z,1.50
2022-08-05T12:47:30.943Z,1.73
2022-08-05T12:50:02.191Z,2.30
2022-08-05T12:52:39.246Z,2.10
2022-08-05T12:55:32.539Z,1.75
2022-08-05T12:58:49.408Z,1.70
2022-08-05T13:02:00.103Z,1.75
2022-08-05T13:03:42.203Z,1.75
2022-08-05T13:06:17.527Z,1.63
2022-08-05T13:08:51.448Z,1.52
2022-08-05T13:12:01.569Z,1.52
2022-08-05T13:14:36.786Z,1.45
2022-08-05T13:17:31.634Z,1.38
2022-08-05T13:20:19.200Z,1.38
2022-08-05T13:22:52.413Z,1.27
2022-08-05T13:25:21.913Z,1.40
2022-08-05T13:27:57.278Z,1.40
2022-08-05T13:30:34.318Z,1.70
2022-08-05T13:33:04.126Z,1.70
2022-08-05T13:35:47.073Z,1.55
2022-08-05T13:38:28.034Z,1.58
2022-08-05T13:41:00.065Z,1.90
2022-08-05T13:43:44.466Z,2.05
2022-08-05T13:46:16.245Z,1.88
2022-08-05T13:48:58.485Z,1.73
2022-08-05T13:51:40.253Z,1.58
2022-08-05T13:54:13.680Z,1.98
2022-08-05T13:56:45.497Z,1.90
2022-08-05T13:59:30.876Z,1.55
2022-08-05T14:02:00.469Z,1.73
2022-08-05T14:04:51.454Z,1.60
2022-08-05T14:07:59.742Z,1.50
2022-08-05T14:10:19.236Z,1.40
2022-08-05T14:12:55.402Z,1.70
2022-08-05T14:16:05.878Z,1.50
2022-08-05T14:18:15.117Z,1.70
2022-08-05T14:20:47.159Z,1.80
2022-08-05T14:23:24.883Z,1.90
2022-08-05T14:25:58.967Z,1.90
2022-08-05T14:28:30.789Z,1.73
2022-08-05T14:31:01.759Z,1.90
2022-08-05T14:33:32.666Z,1.80
2022-08-05T14:36:20.573Z,2.05
2022-08-05T14:38:50.130Z,2.22
2022-08-05T14:41:18.699Z,2.30
2022-08-05T14:44:02.461Z,2.33
2022-08-05T14:46:35.103Z,1.90
2022-08-05T14:49:07.509Z,1.90
2022-08-05T14:51:38.109Z,1.98
2022-08-05T14:54:28.291Z,1.70
2022-08-05T14:56:55.147Z,1.98
2022-08-05T14:59:22.400Z,2.30
2022-08-05T15:01:50.343Z,2.10
2022-08-05T15:04:22.372Z,2.58
2022-08-05T15:06:52.873Z,2.08
2022-08-05T15:09:52.368Z,2.20
2022-08-05T15:12:11.614Z,2.15
2022-08-05T15:14:50.601Z,2.35
2022-08-05T15:17:46.124Z,2.60
2022-08-05T15:20:18.580Z,2.20
2022-08-05T15:22:54.267Z,2.45
2022-08-05T15:25:52.869Z,2.35
2022-08-05T15:28:15.732Z,2.40
2022-08-05T15:30:46.709Z,2.65
2022-08-05T15:33:56.601Z,2.72
2022-08-05T15:36:09.040Z,2.28
2022-08-05T15:38:46.454Z,2.90
2022-08-05T15:41:21.833Z,2.85
2022-08-05T15:43:54.504Z,3.03
2022-08-05T15:46:24.120Z,2.95
2022-08-05T15:48:54.770Z,2.70
2022-08-05T15:52:12.811Z,2.63
2022-08-05T15:54:17.382Z,3.00
2022-08-05T15:56:44.352Z,2.33
2022-08-05T15:59:21.601Z,2.80
2022-08-05T16:01:52.308Z,2.70
2022-08-05T16:04:25.663Z,2.53
2022-08-05T16:06:55.550Z,2.83
2022-08-05T16:09:24.691Z,2.70
2022-08-05T16:11:54.101Z,2.95
2022-08-05T16:14:23.045Z,2.58
2022-08-05T16:16:50.610Z,2.92
2022-08-05T16:19:19.250Z,2.60
2022-08-05T16:22:06.745Z,2.47
2022-08-05T16:24:40.574Z,2.65
2022-08-05T16:27:09.712Z,2.47
2022-08-05T16:29:50.298Z,2.75
2022-08-05T16:32:23.350Z,2.72
2022-08-05T16:35:00.720Z,2.53
2022-08-05T16:38:03.094Z,2.72
2022-08-05T16:40:28.695Z,2.70
2022-08-05T16:43:03.336Z,2.53
2022-08-05T16:46:03.613Z,2.60
2022-08-05T16:48:33.841Z,2.40
2022-08-05T16:51:09.311Z,2.55
2022-08-05T16:54:04.955Z,2.67
2022-08-05T16:56:30.449Z,3.00
2022-08-05T16:58:58.874Z,3.00
2022-08-05T17:01:28.243Z,3.03
2022-08-05T17:04:15.242Z,3.38
2022-08-05T17:06:42.371Z,3.45
2022-08-05T17:09:09.490Z,3.38
2022-08-05T17:11:48.592Z,2.80
2022-08-05T17:14:22.340Z,2.83
2022-08-05T17:17:02.631Z,2.60
2022-08-05T17:19:29.727Z,2.00
2022-08-05T17:21:58.379Z,2.10
2022-08-05T17:24:33.947Z,1.95
2022-08-05T17:27:06.205Z,1.98
2022-08-05T17:29:41.274Z,1.92
2022-08-05T17:32:16.999Z,1.77
2022-08-05T17:34:49.093Z,1.92
2022-08-05T17:37:40.125Z,1.90
2022-08-05T17:40:12.422Z,2.10
2022-08-05T17:42:55.713Z,1.40
2022-08-05T17:45:38.007Z,1.10
2022-08-05T17:48:12.005Z,0.90
2022-08-05T17:50:39.250Z,0.70
2022-08-05T17:53:17.681Z,0.60
2022-08-05T17:55:48.048Z,0.68
2022-08-05T17:58:32.283Z,0.55
2022-08-05T18:01:08.225Z,1.85
2022-08-05T18:04:11.947Z,1.75
2022-08-05T18:09:59.970Z,0.85
2022-08-05T18:12:59.266Z,0.88
2022-08-05T18:19:10.850Z,1.10
2022-08-05T18:22:08.758Z,0.75
2022-08-05T18:24:43.905Z,1.10
2022-08-05T18:27:12.692Z,1.13
2022-08-05T18:29:51.928Z,1.60
2022-08-05T18:32:27.703Z,1.30
2022-08-05T18:34:55.741Z,1.40
2022-08-05T18:37:33.414Z,1.13
2022-08-05T18:40:33.906Z,0.97
2022-08-05T18:42:47.920Z,1.30
2022-08-05T18:45:15.014Z,0.73
2022-08-05T18:47:42.822Z,0.87
2022-08-05T18:50:44.829Z,0.90
2022-08-05T18:53:22.731Z,0.70
2022-08-05T18:55:52.053Z,0.70
2022-08-05T18:58:21.241Z,0.80
2022-08-05T19:00:54.474Z,0.82
2022-08-05T19:03:55.091Z,0.98
2022-08-05T19:06:19.153Z,0.98
2022-08-05T19:08:49.440Z,0.60
2022-08-05T19:11:16.416Z,0.77
2022-08-05T19:14:00.944Z,0.57
2022-08-05T19:16:33.069Z,0.50
2022-08-05T19:19:03.982Z,0.80
2022-08-05T19:21:34.301Z,0.70
2022-08-05T19:24:07.090Z,0.80
2022-08-05T19:26:54.903Z,0.60
2022-08-05T19:29:26.688Z,0.70
2022-08-05T19:32:11.120Z,0.73
2022-08-05T19:34:38.948Z,0.80
2022-08-05T19:37:06.643Z,0.70
2022-08-05T19:39:45.685Z,0.60
2022-08-05T19:42:35.821Z,0.63
2022-08-05T19:45:05.604Z,1.00
2022-08-05T19:47:37.496Z,0.90
2022-08-05T19:50:07.915Z,0.70
2022-08-05T19:52:39.649Z,0.80
2022-08-05T19:56:14.546Z,0.83
2022-08-05T19:58:10.396Z,0.97
2022-08-05T20:00:42.106Z,0.73
2022-08-05T20:03:09.599Z,0.97
2022-08-05T20:05:50.159Z,0.80
2022-08-05T20:08:17.534Z,0.90
2022-08-05T20:10:44.519Z,0.90
2022-08-05T20:13:16.947Z,0.80
2022-08-05T20:15:52.073Z,0.90
2022-08-05T20:18:33.927Z,0.80
2022-08-05T20:21:06.530Z,0.70
2022-08-05T20:23:39.899Z,1.00
2022-08-05T20:26:30.554Z,0.93
2022-08-05T20:29:27.587Z,1.03
2022-08-05T20:32:18.105Z,0.97
2022-08-05T20:34:46.070Z,0.90
2022-08-05T20:38:04.835Z,0.83
2022-08-05T20:40:07.588Z,1.00
2022-08-05T20:42:35.516Z,1.10
2022-08-05T20:45:04.613Z,0.70
2022-08-05T20:47:40.278Z,0.93
2022-08-05T20:50:09.378Z,0.77
2022-08-05T20:52:41.440Z,0.67
2022-08-05T20:56:07.274Z,0.70
2022-08-05T20:57:57.129Z,0.87
2022-08-05T21:00:49.518Z,0.60
2022-08-05T21:03:12.189Z,0.87
2022-08-05T21:05:53.666Z,1.00
2022-08-05T21:08:26.637Z,1.10
2022-08-05T21:11:00.486Z,0.80
2022-08-05T21:13:47.084Z,0.90
2022-08-05T21:16:20.052Z,0.90
2022-08-05T21:18:47.408Z,0.67
2022-08-05T21:21:17.323Z,0.80
2022-08-05T21:23:50.405Z,0.90
2022-08-05T21:26:19.070Z,0.90
2022-08-05T21:28:47.616Z,0.67
2022-08-05T21:31:19.200Z,0.70
2022-08-05T21:33:47.717Z,0.73
2022-08-05T21:36:27.450Z,1.10
2022-08-05T21:38:57.401Z,0.77
2022-08-05T21:41:26.109Z,0.90
2022-08-05T21:44:04.278Z,0.90
2022-08-05T21:46:45.254Z,1.00
2022-08-05T21:50:00.472Z,0.93
2022-08-05T21:56:16.165Z,1.00
2022-08-05T21:58:48.415Z,0.90
2022-08-05T22:01:25.972Z,1.10
2022-08-05T22:03:53.863Z,1.20
2022-08-05T22:06:35.218Z,1.17
2022-08-05T22:09:14.589Z,1.47
2022-08-05T22:11:46.688Z,0.90
2022-08-05T22:14:34.343Z,1.23
2022-08-05T22:17:05.294Z,1.20
2022-08-05T22:20:02.561Z,1.00
2022-08-05T22:22:27.332Z,1.30
2022-08-05T22:25:31.169Z,1.30
2022-08-05T22:37:59.025Z,1.50
2022-08-05T22:41:09.423Z,1.40
2022-08-05T22:43:43.179Z,1.40
2022-08-05T22:46:13.490Z,1.47
2022-08-05T22:52:32.378Z,1.30
2022-08-05T22:55:37.292Z,1.70
2022-08-05T22:58:53.054Z,1.60
2022-08-05T23:15:12.720Z,1.43
2022-08-05T23:18:19.381Z,1.80
2022-08-05T23:24:51.079Z,1.47
2022-08-05T23:27:22.690Z,1.40
2022-08-05T23:29:51.802Z,1.50
2022-08-05T23:35:34.483Z,1.70
2022-08-05T23:41:41.094Z,2.00
2022-08-05T23:50:46.163Z,1.50
2022-08-05T23:54:12.089Z,1.87
2022-08-05T23:56:40.088Z,1.80
2022-08-05T23:59:17.054Z,1.63
